createdAt,value
2019-03-01T00:00:42.721Z,25.33
2019-03-01T00:03:38.030Z,24.83
2019-03-01T00:06:08.570Z,24.57
2019-03-01T00:08:39.195Z,25.10
2019-03-01T00:11:09.789Z,25.17
2019-03-01T00:13:40.374Z,24.10
2019-03-01T00:16:10.933Z,24.93
2019-03-01T00:18:41.512Z,25.87
2019-03-01T00:21:13.020Z,26.37
2019-03-01T00:23:43.562Z,25.50
2019-03-01T00:29:09.529Z,26.63
2019-03-01T00:31:40.094Z,25.87
2019-03-01T00:34:10.644Z,25.83
2019-03-01T00:36:41.137Z,26.83
2019-03-01T00:39:11.716Z,25.03
2019-03-01T00:41:42.373Z,24.27
2019-03-01T00:44:12.936Z,24.50
2019-03-01T00:46:41.829Z,23.03
2019-03-01T00:49:10.729Z,23.13
2019-03-01T00:51:39.682Z,25.43
2019-03-01T00:54:08.621Z,25.40
2019-03-01T00:56:37.571Z,25.00
2019-03-01T00:59:06.510Z,24.57
2019-03-01T01:01:35.437Z,23.20
2019-03-01T01:04:04.344Z,25.30
2019-03-01T01:06:33.210Z,26.67
2019-03-01T01:09:02.126Z,26.03
2019-03-01T01:11:32.684Z,26.37
2019-03-01T01:14:01.589Z,27.33
2019-03-01T01:16:30.509Z,27.33
2019-03-01T01:18:59.425Z,28.60
2019-03-01T01:21:28.384Z,27.20
2019-03-01T01:23:57.299Z,28.73
2019-03-01T01:26:26.233Z,30.60
2019-03-01T01:28:55.153Z,29.40
2019-03-01T01:31:24.065Z,29.57
2019-03-01T01:33:53.009Z,30.60
2019-03-01T01:36:21.958Z,31.47
2019-03-01T01:38:50.867Z,29.27
2019-03-01T01:41:19.846Z,30.03
2019-03-01T01:43:48.753Z,28.93
2019-03-01T01:46:17.698Z,29.37
2019-03-01T01:48:46.641Z,24.73
2019-03-01T01:51:15.558Z,29.27
2019-03-01T01:53:44.489Z,29.73
2019-03-01T01:56:13.430Z,30.50
2019-03-01T01:58:42.389Z,30.07
2019-03-01T02:01:11.297Z,29.97
2019-03-01T02:03:40.225Z,29.90
2019-03-01T02:06:09.145Z,34.83
2019-03-01T02:08:38.074Z,31.17
2019-03-01T02:11:06.968Z,30.80
2019-03-01T02:13:35.917Z,31.53
2019-03-01T02:16:04.825Z,32.30
2019-03-01T02:18:33.758Z,30.77
2019-03-01T02:21:02.676Z,31.37
2019-03-01T02:23:31.526Z,31.27
2019-03-01T02:26:00.455Z,32.50
2019-03-01T02:28:29.391Z,31.23
2019-03-01T02:31:00.205Z,33.30
2019-03-01T02:33:29.167Z,32.77
2019-03-01T02:35:58.083Z,33.17
2019-03-01T02:38:27.005Z,32.57
2019-03-01T02:40:55.921Z,30.57
2019-03-01T02:43:24.848Z,30.97
2019-03-01T02:45:53.765Z,33.80
2019-03-01T02:48:22.701Z,31.93
2019-03-01T02:50:51.533Z,31.53
2019-03-01T02:53:20.461Z,30.83
2019-03-01T02:55:49.343Z,31.67
2019-03-01T02:58:18.422Z,30.70
2019-03-01T03:00:47.321Z,31.80
2019-03-01T03:03:17.216Z,32.67
2019-03-01T03:05:47.817Z,31.87
2019-03-01T03:08:16.760Z,32.20
2019-03-01T03:10:45.708Z,31.97
2019-03-01T03:13:14.624Z,32.43
2019-03-01T03:15:45.236Z,32.37
2019-03-01T03:18:14.152Z,34.47
2019-03-01T03:20:43.083Z,33.47
2019-03-01T03:23:11.981Z,33.37
2019-03-01T03:25:40.937Z,33.43
2019-03-01T03:28:09.864Z,30.93
2019-03-01T03:30:38.777Z,32.03
2019-03-01T03:33:07.719Z,33.23
2019-03-01T03:35:36.790Z,32.60
2019-03-01T03:38:06.018Z,31.57
2019-03-01T03:40:35.043Z,32.10
2019-03-01T03:43:03.980Z,32.00
2019-03-01T03:45:33.962Z,34.77
2019-03-01T03:48:02.974Z,29.77
2019-03-01T03:50:31.936Z,31.93
2019-03-01T03:53:00.845Z,30.87
2019-03-01T03:55:29.769Z,31.07
2019-03-01T03:57:58.671Z,32.07
2019-03-01T04:00:27.704Z,31.40
2019-03-01T04:02:56.611Z,30.83
2019-03-01T04:05:25.577Z,30.80
2019-03-01T04:07:54.480Z,32.63
2019-03-01T04:10:23.420Z,31.93
2019-03-01T04:12:52.359Z,32.07
2019-03-01T04:15:21.401Z,31.93
2019-03-01T04:17:50.320Z,31.67
2019-03-01T04:20:19.256Z,32.83
2019-03-01T04:22:48.186Z,33.00
2019-03-01T04:25:17.098Z,31.63
2019-03-01T04:27:46.023Z,33.93
2019-03-01T04:30:15.758Z,33.93
2019-03-01T04:32:44.720Z,34.67
2019-03-01T04:35:14.835Z,34.07
2019-03-01T04:37:43.759Z,34.20
2019-03-01T04:40:13.620Z,34.30
2019-03-01T04:42:42.545Z,34.27
2019-03-01T04:45:13.173Z,32.57
2019-03-01T04:47:42.174Z,29.47
2019-03-01T04:50:11.509Z,32.43
2019-03-01T04:52:40.611Z,33.03
2019-03-01T04:55:10.828Z,32.20
2019-03-01T04:57:39.789Z,34.07
2019-03-01T05:00:10.353Z,33.33
2019-03-01T05:02:39.290Z,33.87
2019-03-01T05:05:08.265Z,33.03
2019-03-01T05:07:37.224Z,33.57
2019-03-01T05:10:07.811Z,31.90
2019-03-01T05:12:36.732Z,33.37
2019-03-01T05:15:07.286Z,33.27
2019-03-01T05:17:36.299Z,33.53
2019-03-01T05:20:05.792Z,34.27
2019-03-01T05:22:34.961Z,34.47
2019-03-01T05:25:05.018Z,34.07
2019-03-01T05:27:33.971Z,36.17
2019-03-01T05:30:03.254Z,33.50
2019-03-01T05:32:33.376Z,34.00
2019-03-01T05:35:02.282Z,33.20
2019-03-01T05:37:31.245Z,34.40
2019-03-01T05:40:00.296Z,34.87
2019-03-01T05:42:29.175Z,34.77
2019-03-01T05:44:58.089Z,33.83
2019-03-01T05:47:27.036Z,34.27
2019-03-01T05:49:55.938Z,33.40
2019-03-01T05:52:24.888Z,32.73
2019-03-01T05:54:53.837Z,32.73
2019-03-01T05:57:22.694Z,32.20
2019-03-01T05:59:51.619Z,33.53
2019-03-01T06:02:22.236Z,32.60
2019-03-01T06:04:52.885Z,33.10
2019-03-01T06:07:23.522Z,33.30
2019-03-01T06:09:55.046Z,32.30
2019-03-01T06:12:25.619Z,32.43
2019-03-01T06:14:56.178Z,32.27
2019-03-01T06:17:26.738Z,33.23
2019-03-01T06:19:57.289Z,35.10
2019-03-01T06:22:27.305Z,35.90
2019-03-01T06:24:57.907Z,34.70
2019-03-01T06:27:28.517Z,36.53
2019-03-01T06:29:59.068Z,36.87
2019-03-01T06:32:29.629Z,36.27
2019-03-01T06:35:00.341Z,36.33
2019-03-01T06:37:31.022Z,36.67
2019-03-01T06:40:04.294Z,36.53
2019-03-01T06:42:34.862Z,34.40
2019-03-01T06:45:05.392Z,36.13
2019-03-01T06:47:36.001Z,34.13
2019-03-01T06:50:07.443Z,32.90
2019-03-01T06:52:36.377Z,32.67
2019-03-01T06:55:05.784Z,31.63
2019-03-01T06:57:34.701Z,32.43
2019-03-01T07:00:06.926Z,33.00
2019-03-01T07:02:37.544Z,32.67
2019-03-01T07:05:06.482Z,31.40
2019-03-01T07:07:35.408Z,30.97
2019-03-01T07:10:05.339Z,29.60
2019-03-01T07:12:34.236Z,28.87
2019-03-01T07:15:03.908Z,29.40
2019-03-01T07:17:32.977Z,30.57
2019-03-01T07:20:01.843Z,29.60
2019-03-01T07:22:31.830Z,29.67
2019-03-01T07:25:00.785Z,29.50
2019-03-01T07:27:29.715Z,29.27
2019-03-01T07:29:58.558Z,30.33
2019-03-01T07:32:27.472Z,29.23
2019-03-01T07:34:56.434Z,31.03
2019-03-01T07:37:25.354Z,28.63
2019-03-01T07:39:54.294Z,30.73
2019-03-01T07:42:23.202Z,31.73
2019-03-01T07:44:52.125Z,31.40
2019-03-01T07:47:21.054Z,30.50
2019-03-01T07:49:49.989Z,31.37
2019-03-01T07:52:18.928Z,31.03
2019-03-01T07:54:49.424Z,30.97
2019-03-01T07:57:18.363Z,30.90
2019-03-01T07:59:47.291Z,30.37
2019-03-01T08:02:16.194Z,31.17
2019-03-01T08:04:45.204Z,28.67
2019-03-01T08:07:14.114Z,31.87
2019-03-01T08:09:44.921Z,30.83
2019-03-01T08:12:13.702Z,32.40
2019-03-01T08:14:42.703Z,30.50
2019-03-01T08:17:11.610Z,31.20
2019-03-01T08:19:40.554Z,28.10
2019-03-01T08:22:09.458Z,29.90
2019-03-01T08:24:38.412Z,28.97
2019-03-01T08:27:09.978Z,28.97
2019-03-01T08:29:37.848Z,28.33
2019-03-01T08:32:06.774Z,28.60
2019-03-01T08:34:35.703Z,28.13
2019-03-01T08:37:04.698Z,28.70
2019-03-01T08:39:36.619Z,28.17
2019-03-01T08:42:04.220Z,28.17
2019-03-01T08:44:34.393Z,28.83
2019-03-01T08:47:04.432Z,26.50
2019-03-01T08:49:33.336Z,30.10
2019-03-01T08:52:02.421Z,26.07
2019-03-01T08:54:31.399Z,27.43
2019-03-01T08:57:00.612Z,26.90
2019-03-01T08:59:29.675Z,26.33
2019-03-01T09:01:58.593Z,25.90
2019-03-01T09:04:27.518Z,27.70
2019-03-01T09:06:56.429Z,27.90
2019-03-01T09:09:25.348Z,26.17
2019-03-01T09:11:54.276Z,29.73
2019-03-01T09:14:26.160Z,29.80
2019-03-01T09:16:53.839Z,28.20
2019-03-01T09:19:25.245Z,28.07
2019-03-01T09:21:53.316Z,27.93
2019-03-01T09:24:22.242Z,29.07
2019-03-01T09:26:51.698Z,26.77
2019-03-01T09:29:21.705Z,26.23
2019-03-01T09:31:50.910Z,26.67
2019-03-01T09:34:21.285Z,25.37
2019-03-01T09:36:51.552Z,27.40
2019-03-01T09:39:20.746Z,29.33
2019-03-01T09:41:49.686Z,29.60
2019-03-01T09:44:18.617Z,31.37
2019-03-01T09:46:47.576Z,30.57
2019-03-01T09:49:16.541Z,30.60
2019-03-01T09:51:48.419Z,31.60
2019-03-01T09:54:16.094Z,30.53
2019-03-01T09:56:45.117Z,32.60
2019-03-01T09:59:14.072Z,31.40
2019-03-01T10:01:42.991Z,30.43
2019-03-01T10:04:11.959Z,31.90
2019-03-01T10:06:40.929Z,31.13
2019-03-01T10:09:10.328Z,30.37
2019-03-01T10:11:40.121Z,31.67
2019-03-01T10:17:27.054Z,28.63
2019-03-01T10:19:55.969Z,29.87
2019-03-01T10:22:24.897Z,31.13
2019-03-01T10:24:53.810Z,30.50
2019-03-01T10:27:22.730Z,30.40
2019-03-01T10:29:51.672Z,31.23
2019-03-01T10:32:21.669Z,34.83
2019-03-01T10:34:50.609Z,36.17
2019-03-01T10:37:19.505Z,37.43
2019-03-01T10:39:55.319Z,40.00
2019-03-01T10:42:18.894Z,41.07
2019-03-01T10:44:47.827Z,39.37
2019-03-01T10:47:16.737Z,40.67
2019-03-01T10:49:45.665Z,38.33
2019-03-01T10:52:14.585Z,40.90
2019-03-01T10:54:43.522Z,42.03
2019-03-01T10:57:12.433Z,42.73
2019-03-01T10:59:41.365Z,41.77
2019-03-01T11:02:10.290Z,40.30
2019-03-01T11:04:39.209Z,39.57
2019-03-01T11:07:08.065Z,40.37
2019-03-01T11:09:37.009Z,38.70
2019-03-01T11:12:17.996Z,38.90
2019-03-01T11:14:46.932Z,38.13
2019-03-01T11:17:15.847Z,38.53
2019-03-01T11:19:44.774Z,36.73
2019-03-01T11:22:13.692Z,39.17
2019-03-01T11:24:42.627Z,41.17
2019-03-01T11:27:13.070Z,42.53
2019-03-01T11:29:42.161Z,40.37
2019-03-01T11:32:11.115Z,40.30
2019-03-01T11:34:40.053Z,39.20
2019-03-01T11:37:08.985Z,32.50
2019-03-01T11:39:37.905Z,33.73
2019-03-01T11:42:06.842Z,31.53
2019-03-01T11:44:35.773Z,31.27
2019-03-01T11:47:04.678Z,31.73
2019-03-01T11:49:33.604Z,30.50
2019-03-01T11:52:02.444Z,30.43
2019-03-01T11:54:31.393Z,30.43
2019-03-01T11:57:00.322Z,31.27
2019-03-01T11:59:29.250Z,29.20
2019-03-01T12:01:58.164Z,27.57
2019-03-01T12:04:27.145Z,29.00
2019-03-01T12:06:56.074Z,29.70
2019-03-01T12:09:25.049Z,31.33
2019-03-01T12:11:53.994Z,32.80
2019-03-01T12:14:23.051Z,32.53
2019-03-01T12:16:51.989Z,34.97
2019-03-01T12:19:21.283Z,33.73
2019-03-01T12:21:50.256Z,32.53
2019-03-01T12:24:19.203Z,33.80
2019-03-01T12:26:48.144Z,32.30
2019-03-01T12:29:17.099Z,33.17
2019-03-01T12:31:46.029Z,31.60
2019-03-01T12:34:14.945Z,30.13
2019-03-01T12:36:43.891Z,32.23
2019-03-01T12:39:12.792Z,27.53
2019-03-01T12:41:42.702Z,27.80
2019-03-01T12:44:11.614Z,25.53
2019-03-01T12:46:40.537Z,22.13
2019-03-01T12:49:10.352Z,21.90
2019-03-01T12:51:39.303Z,17.30
2019-03-01T12:54:08.221Z,17.07
2019-03-01T12:56:37.147Z,17.03
2019-03-01T12:59:06.070Z,16.80
2019-03-01T13:01:34.989Z,17.37
2019-03-01T13:04:03.838Z,16.37
2019-03-01T13:06:35.451Z,17.80
2019-03-01T13:09:04.338Z,16.33
2019-03-01T13:11:33.966Z,17.47
2019-03-01T13:14:02.935Z,17.47
2019-03-01T13:16:31.890Z,17.67
2019-03-01T13:19:00.817Z,19.40
2019-03-01T13:21:29.751Z,19.30
2019-03-01T13:23:58.730Z,18.00
2019-03-01T13:26:27.662Z,18.97
2019-03-01T13:28:56.583Z,18.70
2019-03-01T13:31:25.521Z,18.50
2019-03-01T13:33:54.434Z,18.70
2019-03-01T13:36:23.377Z,18.67
2019-03-01T13:38:52.286Z,18.40
2019-03-01T13:41:21.225Z,19.03
2019-03-01T13:43:50.140Z,18.23
2019-03-01T13:46:19.077Z,18.07
2019-03-01T13:48:50.921Z,17.47
2019-03-01T13:51:18.561Z,17.47
2019-03-01T13:53:49.168Z,15.90
2019-03-01T13:56:18.228Z,17.47
2019-03-01T13:58:47.214Z,18.63
2019-03-01T14:01:17.205Z,18.13
2019-03-01T14:03:46.080Z,18.97
2019-03-01T14:06:15.905Z,18.60
2019-03-01T14:08:44.926Z,18.47
2019-03-01T14:11:15.221Z,18.93
2019-03-01T14:13:47.678Z,19.37
2019-03-01T14:16:17.039Z,18.20
2019-03-01T14:18:45.562Z,18.47
2019-03-01T14:21:15.452Z,18.30
2019-03-01T14:23:44.426Z,18.30
2019-03-01T14:26:15.146Z,18.33
2019-03-01T14:28:43.887Z,19.73
2019-03-01T14:31:12.787Z,17.63
2019-03-01T14:33:42.684Z,18.70
2019-03-01T14:36:11.593Z,19.20
2019-03-01T14:38:41.495Z,19.13
2019-03-01T14:41:10.413Z,16.80
2019-03-01T14:43:39.350Z,18.43
2019-03-01T14:46:08.261Z,17.83
2019-03-01T14:48:37.188Z,16.27
2019-03-01T14:51:07.017Z,16.27
2019-03-01T14:53:36.706Z,16.07
2019-03-01T14:56:07.254Z,17.13
2019-03-01T14:58:37.819Z,16.23
2019-03-01T15:01:08.372Z,14.83
2019-03-01T15:03:37.889Z,15.87
2019-03-01T15:06:07.069Z,14.83
2019-03-01T15:08:36.298Z,16.10
2019-03-01T15:11:08.068Z,16.50
2019-03-01T15:13:37.035Z,15.53
2019-03-01T15:16:07.509Z,15.10
2019-03-01T15:18:37.114Z,15.63
2019-03-01T15:21:06.685Z,16.27
2019-03-01T15:23:35.657Z,15.10
2019-03-01T15:26:04.593Z,14.67
2019-03-01T15:28:35.767Z,14.60
2019-03-01T15:31:04.817Z,15.40
2019-03-01T15:33:33.738Z,13.40
2019-03-01T15:36:02.677Z,12.67
2019-03-01T15:38:31.518Z,13.30
2019-03-01T15:41:03.537Z,15.53
2019-03-01T15:43:31.078Z,12.27
2019-03-01T15:45:59.953Z,11.73
2019-03-01T15:48:28.872Z,12.90
2019-03-01T15:50:59.003Z,12.80
2019-03-01T15:53:28.380Z,12.30
2019-03-01T15:55:57.328Z,11.40
2019-03-01T15:58:29.200Z,11.17
2019-03-01T16:00:56.820Z,9.60
2019-03-01T16:03:25.737Z,10.13
2019-03-01T16:05:54.656Z,8.63
2019-03-01T16:08:23.600Z,8.47
2019-03-01T16:10:52.517Z,8.20
2019-03-01T16:13:21.430Z,9.17
2019-03-01T16:15:50.354Z,7.40
2019-03-01T16:18:19.333Z,7.50
2019-03-01T16:20:48.266Z,7.37
2019-03-01T16:23:17.192Z,8.87
2019-03-01T16:25:46.135Z,7.57
2019-03-01T16:28:14.965Z,7.23
2019-03-01T16:30:43.902Z,7.90
2019-03-01T16:33:12.785Z,7.77
2019-03-01T16:35:41.716Z,6.63
2019-03-01T16:38:10.665Z,8.30
2019-03-01T16:40:39.597Z,7.37
2019-03-01T16:43:08.505Z,7.30
2019-03-01T16:45:37.462Z,7.47
2019-03-01T16:48:06.377Z,7.17
2019-03-01T16:50:35.302Z,9.13
2019-03-01T16:53:05.419Z,9.97
2019-03-01T16:55:34.462Z,9.03
2019-03-01T16:58:07.258Z,9.17
2019-03-01T17:00:33.913Z,10.17
2019-03-01T17:03:04.481Z,10.77
2019-03-01T17:05:35.719Z,9.90
2019-03-01T17:08:05.941Z,9.27
2019-03-01T17:10:34.665Z,8.93
2019-03-01T17:13:03.603Z,7.47
2019-03-01T17:15:32.538Z,8.03
2019-03-01T17:18:01.493Z,7.50
2019-03-01T17:20:31.397Z,6.80
2019-03-01T17:23:03.142Z,6.93
2019-03-01T17:25:30.858Z,7.07
2019-03-01T17:27:59.817Z,7.13
2019-03-01T17:30:28.749Z,6.70
2019-03-01T17:32:57.697Z,7.57
2019-03-01T17:35:26.591Z,7.80
2019-03-01T17:37:55.505Z,8.03
2019-03-01T17:40:24.359Z,7.13
2019-03-01T17:42:56.268Z,7.47
2019-03-01T17:45:24.404Z,7.53
2019-03-01T17:47:55.315Z,7.60
2019-03-01T17:50:23.864Z,7.63
2019-03-01T17:53:17.726Z,7.87
2019-03-01T17:55:46.640Z,8.10
2019-03-01T17:58:15.559Z,7.37
2019-03-01T18:00:45.324Z,6.50
2019-03-01T18:03:14.236Z,5.80
2019-03-01T18:05:43.077Z,5.57
2019-03-01T18:08:13.950Z,6.63
2019-03-01T18:10:42.620Z,5.50
2019-03-01T18:13:11.482Z,6.00
2019-03-01T18:15:40.387Z,5.40
2019-03-01T18:18:12.289Z,5.20
2019-03-01T18:20:39.858Z,5.97
2019-03-01T18:23:08.802Z,6.30
2019-03-01T18:25:37.711Z,6.67
2019-03-01T18:28:06.643Z,6.63
2019-03-01T18:30:35.569Z,7.33
2019-03-01T18:33:04.514Z,7.30
2019-03-01T18:35:33.402Z,6.53
2019-03-01T18:38:02.234Z,7.90
2019-03-01T18:40:31.183Z,7.27
2019-03-01T18:43:00.098Z,7.20
2019-03-01T18:45:29.600Z,8.43
2019-03-01T18:47:58.569Z,7.30
2019-03-01T18:50:31.167Z,7.67
2019-03-01T18:53:00.193Z,7.83
2019-03-01T18:55:29.088Z,8.70
2019-03-01T18:57:58.013Z,7.97
2019-03-01T19:00:29.044Z,6.97
2019-03-01T19:03:01.035Z,7.13
2019-03-01T19:05:28.547Z,7.60
2019-03-01T19:08:00.717Z,7.30
2019-03-01T19:10:28.728Z,7.13
2019-03-01T19:12:57.851Z,7.60
2019-03-01T19:15:26.771Z,7.17
2019-03-01T19:17:55.961Z,7.03
2019-03-01T19:20:26.525Z,7.37
2019-03-01T19:22:55.468Z,6.60
2019-03-01T19:25:25.285Z,6.73
2019-03-01T19:27:54.834Z,6.20
2019-03-01T19:30:24.451Z,6.87
2019-03-01T19:32:53.553Z,7.23
2019-03-01T19:35:28.345Z,6.47
2019-03-01T19:37:53.129Z,6.20
2019-03-01T19:40:22.517Z,6.07
2019-03-01T19:42:51.425Z,5.80
2019-03-01T19:45:20.356Z,6.70
2019-03-01T19:47:49.273Z,5.93
2019-03-01T19:50:21.822Z,6.43
2019-03-01T19:52:50.594Z,5.13
2019-03-01T19:55:19.721Z,6.47
2019-03-01T19:57:49.722Z,5.27
2019-03-01T20:00:20.292Z,6.13
2019-03-01T20:02:49.218Z,5.10
2019-03-01T20:05:19.806Z,5.20
2019-03-01T20:07:51.814Z,5.67
2019-03-01T20:10:19.341Z,5.70
2019-03-01T20:12:48.241Z,5.37
2019-03-01T20:15:18.037Z,5.70
2019-03-01T20:17:47.005Z,6.00
2019-03-01T20:20:16.808Z,5.00
2019-03-01T20:22:45.759Z,5.20
2019-03-01T20:25:16.208Z,4.37
2019-03-01T20:27:45.809Z,4.73
2019-03-01T20:30:16.385Z,4.67
2019-03-01T20:32:47.391Z,4.57
2019-03-01T20:35:15.930Z,4.97
2019-03-01T20:37:44.835Z,5.30
2019-03-01T20:40:14.436Z,4.87
2019-03-01T20:42:43.730Z,4.93
2019-03-01T20:45:14.090Z,4.73
2019-03-01T20:47:44.729Z,5.03
2019-03-01T20:50:15.706Z,4.93
2019-03-01T20:52:44.266Z,5.67
2019-03-01T20:55:13.184Z,5.77
2019-03-01T20:57:42.052Z,5.60
2019-03-01T21:00:12.634Z,5.90
2019-03-01T21:02:42.012Z,6.33
2019-03-01T21:05:11.897Z,6.00
2019-03-01T21:07:40.915Z,6.53
2019-03-01T21:10:12.589Z,6.47
2019-03-01T21:12:42.282Z,5.90
2019-03-01T21:15:12.449Z,5.97
2019-03-01T21:17:41.373Z,6.03
2019-03-01T21:20:11.382Z,5.10
2019-03-01T21:34:56.083Z,4.97
2019-03-01T21:37:25.024Z,5.00
2019-03-01T21:40:06.660Z,5.07
2019-03-01T21:42:35.636Z,5.17
2019-03-01T21:45:06.280Z,5.87
2019-03-01T21:47:35.217Z,5.10
2019-03-01T21:50:07.523Z,5.33
2019-03-01T21:52:35.176Z,5.13
2019-03-01T21:55:05.771Z,5.53
2019-03-01T21:57:34.701Z,5.00
2019-03-01T22:00:05.098Z,5.10
2019-03-01T22:02:35.708Z,5.00
2019-03-01T22:05:06.278Z,5.10
2019-03-01T22:07:37.195Z,5.20
2019-03-01T22:10:07.365Z,4.53
2019-03-01T22:12:36.362Z,5.40
2019-03-01T22:15:06.893Z,4.73
2019-03-01T22:17:36.657Z,4.50
2019-03-01T22:20:08.971Z,4.47
2019-03-01T22:22:38.767Z,4.80
2019-03-01T22:25:09.238Z,4.77
2019-03-01T22:27:38.179Z,5.77
2019-03-01T22:30:08.861Z,5.40
2019-03-01T22:32:37.772Z,4.33
2019-03-01T22:35:09.407Z,4.47
2019-03-01T22:37:37.297Z,4.37
2019-03-01T22:40:08.048Z,5.77
2019-03-01T22:42:37.024Z,5.40
2019-03-01T22:45:10.337Z,5.07
2019-03-01T22:47:38.271Z,4.93
2019-03-01T22:50:08.764Z,5.00
2019-03-01T22:52:37.653Z,5.17
2019-03-01T22:55:07.680Z,5.00
2019-03-01T22:57:36.587Z,5.27
2019-03-01T23:00:07.223Z,5.30
2019-03-01T23:02:40.337Z,5.43
2019-03-01T23:05:09.360Z,5.13
2019-03-01T23:07:38.330Z,5.37
2019-03-01T23:10:08.513Z,5.80
2019-03-01T23:12:40.577Z,5.07
2019-03-01T23:15:08.226Z,5.53
2019-03-01T23:17:37.206Z,5.60
2019-03-01T23:20:07.757Z,6.20
2019-03-01T23:22:36.647Z,5.73
2019-03-01T23:25:07.586Z,6.43
2019-03-01T23:27:36.401Z,6.23
2019-03-01T23:30:29.067Z,5.90
2019-03-01T23:32:56.846Z,5.87
2019-03-01T23:35:25.783Z,6.17
2019-03-01T23:37:54.746Z,6.03
2019-03-01T23:40:23.673Z,6.60
2019-03-01T23:42:53.364Z,6.63
2019-03-01T23:45:23.233Z,6.50
2019-03-01T23:47:52.152Z,6.20
2019-03-01T23:50:21.059Z,6.13
2019-03-01T23:52:49.990Z,6.77
2019-03-01T23:55:19.876Z,6.33
2019-03-01T23:57:48.872Z,6.47
